createdAt,value
2022-08-09T00:00:04.357Z,73.19
2022-08-09T00:02:34.076Z,73.33
2022-08-09T00:06:16.179Z,73.33
2022-08-09T00:07:48.834Z,73.24
2022-08-09T00:10:18.160Z,73.19
2022-08-09T00:12:52.695Z,73.34
2022-08-09T00:15:26.598Z,73.42
2022-08-09T00:18:11.098Z,73.51
2022-08-09T00:20:41.511Z,73.65
2022-08-09T00:23:57.138Z,73.81
2022-08-09T00:26:04.929Z,73.74
2022-08-09T00:28:32.125Z,73.86
2022-08-09T00:31:01.520Z,73.88
2022-08-09T00:33:51.245Z,73.99
2022-08-09T00:36:19.681Z,74.16
2022-08-09T00:38:46.686Z,74.11
2022-08-09T00:44:09.871Z,74.16
2022-08-09T00:44:20.032Z,74.29
2022-08-09T00:47:04.775Z,74.48
2022-08-09T00:49:36.593Z,74.58
2022-08-09T00:52:06.191Z,74.56
2022-08-09T00:54:45.505Z,74.50
2022-08-09T00:57:12.809Z,74.71
2022-08-09T00:59:47.181Z,74.76
2022-08-09T01:02:22.169Z,74.84
2022-08-09T01:05:13.865Z,74.99
2022-08-09T01:08:02.689Z,74.90
2022-08-09T01:11:11.357Z,74.90
2022-08-09T01:14:00.125Z,74.99
2022-08-09T01:16:35.142Z,75.14
2022-08-09T01:19:17.113Z,74.96
2022-08-09T01:22:12.499Z,75.13
2022-08-09T01:25:00.967Z,75.07
2022-08-09T01:27:31.503Z,75.20
2022-08-09T01:30:03.671Z,75.27
2022-08-09T01:32:48.157Z,75.16
2022-08-09T01:35:38.016Z,75.16
2022-08-09T01:38:14.803Z,75.33
2022-08-09T01:40:53.097Z,75.42
2022-08-09T01:43:50.974Z,75.51
2022-08-09T01:46:25.036Z,75.59
2022-08-09T01:49:14.992Z,75.58
2022-08-09T01:51:53.166Z,75.71
2022-08-09T01:54:25.630Z,75.87
2022-08-09T01:56:56.794Z,75.99
2022-08-09T01:59:23.902Z,76.22
2022-08-09T02:01:59.208Z,76.40
2022-08-09T02:04:29.882Z,76.32
2022-08-09T02:08:35.124Z,76.45
2022-08-09T02:10:18.356Z,76.43
2022-08-09T02:12:58.964Z,76.46
2022-08-09T02:15:27.240Z,76.60
2022-08-09T02:18:17.235Z,76.71
2022-08-09T02:20:48.569Z,76.83
2022-08-09T02:23:25.327Z,76.87
2022-08-09T02:26:00.118Z,77.02
2022-08-09T02:28:34.784Z,77.23
2022-08-09T02:31:06.208Z,77.41
2022-08-09T02:34:07.137Z,77.42
2022-08-09T02:36:31.828Z,77.47
2022-08-09T02:39:03.647Z,77.44
2022-08-09T02:41:43.644Z,77.43
2022-08-09T02:44:30.254Z,77.57
2022-08-09T02:47:00.884Z,77.64
2022-08-09T02:49:38.890Z,78.13
2022-08-09T02:52:14.452Z,78.12
2022-08-09T02:54:51.258Z,78.18
2022-08-09T02:57:23.421Z,78.17
2022-08-09T03:00:25.223Z,78.03
2022-08-09T03:02:58.373Z,78.04
2022-08-09T03:05:28.070Z,78.03
2022-08-09T03:07:55.802Z,78.12
2022-08-09T03:10:24.957Z,78.29
2022-08-09T03:12:53.202Z,78.35
2022-08-09T03:15:22.935Z,78.42
2022-08-09T03:17:57.942Z,78.53
2022-08-09T03:20:29.643Z,78.64
2022-08-09T03:23:00.401Z,78.56
2022-08-09T03:25:58.435Z,78.74
2022-08-09T03:28:31.137Z,78.73
2022-08-09T03:30:59.264Z,78.60
2022-08-09T03:33:54.888Z,78.62
2022-08-09T03:36:19.374Z,78.56
2022-08-09T03:38:47.785Z,78.58
2022-08-09T03:41:18.264Z,78.51
2022-08-09T03:44:03.573Z,78.61
2022-08-09T03:46:33.923Z,78.85
2022-08-09T03:49:04.169Z,79.04
2022-08-09T03:51:55.296Z,79.14
2022-08-09T03:54:29.111Z,79.33
2022-08-09T03:56:58.291Z,79.37
2022-08-09T03:59:27.287Z,79.37
2022-08-09T04:02:10.419Z,79.44
2022-08-09T04:04:38.879Z,79.46
2022-08-09T04:07:05.815Z,79.58
2022-08-09T04:09:47.574Z,79.86
2022-08-09T04:12:51.395Z,79.75
2022-08-09T04:15:51.886Z,79.83
2022-08-09T04:18:08.003Z,79.83
2022-08-09T04:20:34.527Z,79.79
2022-08-09T04:23:01.936Z,79.88
2022-08-09T04:25:28.962Z,79.83
2022-08-09T04:28:02.410Z,79.87
2022-08-09T04:30:29.323Z,79.96
2022-08-09T04:32:56.980Z,80.07
2022-08-09T04:35:23.584Z,80.08
2022-08-09T04:37:50.505Z,80.03
2022-08-09T04:40:19.577Z,79.89
2022-08-09T04:43:03.587Z,79.93
2022-08-09T04:45:35.939Z,80.08
2022-08-09T04:48:17.275Z,79.98
2022-08-09T04:50:44.985Z,80.17
2022-08-09T04:53:13.880Z,80.33
2022-08-09T04:55:58.899Z,80.48
2022-08-09T04:58:27.745Z,80.69
2022-08-09T05:00:55.371Z,80.90
2022-08-09T05:03:42.422Z,81.07
2022-08-09T05:06:27.400Z,81.52
2022-08-09T05:09:00.838Z,81.73
2022-08-09T05:11:35.551Z,81.69
2022-08-09T05:14:06.655Z,81.82
2022-08-09T05:16:58.460Z,81.98
2022-08-09T05:19:24.410Z,81.65
2022-08-09T05:21:55.628Z,81.20
2022-08-09T05:24:24.272Z,80.99
2022-08-09T05:26:51.394Z,80.89
2022-08-09T05:29:21.164Z,80.96
2022-08-09T05:31:56.636Z,81.00
2022-08-09T05:34:33.272Z,80.86
2022-08-09T05:37:06.587Z,80.90
2022-08-09T05:39:42.763Z,80.93
2022-08-09T05:42:17.294Z,80.78
2022-08-09T05:44:50.448Z,80.61
2022-08-09T05:47:18.972Z,80.62
2022-08-09T05:50:34.967Z,80.60
2022-08-09T05:52:32.874Z,80.50
2022-08-09T05:55:02.773Z,80.38
2022-08-09T05:57:51.191Z,80.23
2022-08-09T06:00:16.871Z,79.86
2022-08-09T06:02:43.459Z,79.85
2022-08-09T06:05:13.487Z,79.60
2022-08-09T06:07:40.149Z,79.55
2022-08-09T06:10:09.435Z,79.07
2022-08-09T06:12:45.490Z,78.69
2022-08-09T06:15:24.371Z,77.92
2022-08-09T06:17:53.078Z,77.75
2022-08-09T06:20:20.431Z,76.99
2022-08-09T06:22:47.617Z,76.66
2022-08-09T06:25:16.432Z,76.28
2022-08-09T06:27:51.413Z,75.44
2022-08-09T06:30:18.520Z,74.31
2022-08-09T06:33:00.856Z,74.22
2022-08-09T06:35:35.646Z,73.68
2022-08-09T06:38:19.725Z,72.61
2022-08-09T06:40:58.647Z,71.39
2022-08-09T06:43:26.884Z,71.23
2022-08-09T06:46:07.129Z,70.57
2022-08-09T06:48:37.349Z,69.86
2022-08-09T06:51:10.396Z,68.96
2022-08-09T06:53:38.521Z,68.72
2022-08-09T06:56:06.969Z,67.52
2022-08-09T07:00:47.099Z,66.83
2022-08-09T07:01:24.027Z,65.84
2022-08-09T07:03:55.657Z,65.36
2022-08-09T07:06:25.618Z,64.46
2022-08-09T07:08:56.301Z,63.58
2022-08-09T07:11:23.788Z,62.62
2022-08-09T07:14:04.895Z,61.94
2022-08-09T07:16:42.562Z,61.09
2022-08-09T07:19:23.141Z,60.45
2022-08-09T07:21:57.899Z,59.62
2022-08-09T07:24:40.294Z,59.95
2022-08-09T07:27:33.830Z,58.75
2022-08-09T07:29:58.812Z,58.15
2022-08-09T07:32:33.516Z,57.12
2022-08-09T07:35:07.978Z,56.58
2022-08-09T07:37:44.016Z,56.30
2022-08-09T07:40:17.032Z,54.97
2022-08-09T07:43:03.554Z,55.02
2022-08-09T07:45:41.451Z,53.55
2022-08-09T07:48:28.651Z,52.27
2022-08-09T07:51:10.096Z,51.02
2022-08-09T07:54:05.321Z,50.02
2022-08-09T07:56:38.717Z,48.49
2022-08-09T07:59:14.082Z,48.23
2022-08-09T08:01:53.756Z,47.46
2022-08-09T08:04:20.390Z,46.97
2022-08-09T08:06:59.997Z,47.10
2022-08-09T08:09:38.554Z,46.09
2022-08-09T08:12:27.802Z,44.82
2022-08-09T08:14:56.948Z,43.65
2022-08-09T08:17:35.252Z,43.23
2022-08-09T08:20:12.682Z,41.40
2022-08-09T08:22:40.189Z,41.71
2022-08-09T08:25:13.172Z,41.19
2022-08-09T08:27:41.235Z,40.10
2022-08-09T08:30:11.053Z,40.22
2022-08-09T08:32:51.265Z,40.05
2022-08-09T08:35:22.411Z,39.36
2022-08-09T08:37:54.675Z,38.54
2022-08-09T08:40:26.797Z,37.19
2022-08-09T08:42:58.857Z,37.56
2022-08-09T08:45:53.645Z,37.85
2022-08-09T08:48:31.189Z,36.57
2022-08-09T08:50:58.712Z,36.17
2022-08-09T08:53:32.209Z,35.77
2022-08-09T08:56:05.024Z,35.51
2022-08-09T08:58:35.929Z,35.52
2022-08-09T09:01:09.094Z,34.93
2022-08-09T09:03:50.509Z,33.99
2022-08-09T09:06:18.168Z,33.50
2022-08-09T09:08:46.087Z,33.20
2022-08-09T09:11:20.785Z,32.53
2022-08-09T09:13:56.671Z,32.77
2022-08-09T09:16:33.617Z,32.76
2022-08-09T09:19:40.224Z,31.99
2022-08-09T09:22:07.682Z,31.61
2022-08-09T09:24:50.975Z,31.96
2022-08-09T09:28:05.728Z,30.37
2022-08-09T09:30:40.122Z,29.53
2022-08-09T09:33:03.012Z,29.32
2022-08-09T09:36:01.329Z,28.75
2022-08-09T09:38:48.176Z,28.36
2022-08-09T09:41:23.765Z,27.95
2022-08-09T09:44:12.443Z,28.32
2022-08-09T09:46:43.111Z,27.48
2022-08-09T09:49:18.668Z,27.01
2022-08-09T09:52:16.565Z,26.46
2022-08-09T09:55:16.595Z,27.13
2022-08-09T09:58:16.664Z,26.27
2022-08-09T10:00:58.469Z,26.46
2022-08-09T10:03:57.659Z,26.44
2022-08-09T10:06:42.607Z,26.25
2022-08-09T10:09:22.712Z,25.71
2022-08-09T10:12:11.984Z,25.48
2022-08-09T10:14:50.088Z,25.39
2022-08-09T10:17:39.701Z,24.98
2022-08-09T10:20:27.096Z,25.79
2022-08-09T10:23:13.496Z,25.10
2022-08-09T10:26:07.497Z,24.94
2022-08-09T10:28:29.411Z,25.52
2022-08-09T10:32:27.406Z,24.45
2022-08-09T10:34:10.674Z,25.12
2022-08-09T10:36:31.480Z,25.36
2022-08-09T10:39:02.477Z,24.84
2022-08-09T10:41:29.098Z,24.76
2022-08-09T10:44:01.159Z,24.73
2022-08-09T10:46:57.285Z,24.69
2022-08-09T10:49:51.290Z,24.96
2022-08-09T10:53:00.080Z,24.23
2022-08-09T10:55:54.977Z,25.15
2022-08-09T10:58:31.193Z,24.65
2022-08-09T11:03:02.282Z,24.40
2022-08-09T11:04:20.106Z,23.91
2022-08-09T11:06:59.923Z,24.31
2022-08-09T11:09:47.789Z,24.22
2022-08-09T11:12:20.039Z,24.62
2022-08-09T11:15:04.310Z,24.88
2022-08-09T11:17:31.816Z,23.94
2022-08-09T11:20:22.170Z,24.22
2022-08-09T11:22:57.217Z,24.77
2022-08-09T11:25:44.976Z,24.20
2022-08-09T11:28:34.644Z,24.12
2022-08-09T11:31:49.933Z,24.46
2022-08-09T11:34:29.366Z,24.81
2022-08-09T11:37:00.083Z,25.33
2022-08-09T11:39:38.149Z,24.37
2022-08-09T11:42:09.256Z,24.39
2022-08-09T11:44:46.278Z,24.53
2022-08-09T11:47:14.557Z,24.65
2022-08-09T11:50:55.241Z,24.58
2022-08-09T11:53:58.060Z,24.53
2022-08-09T11:55:53.693Z,25.04
2022-08-09T11:58:32.411Z,24.32
2022-08-09T12:01:37.793Z,24.17
2022-08-09T12:04:04.681Z,23.56
2022-08-09T12:06:35.085Z,24.27
2022-08-09T12:09:19.175Z,24.69
2022-08-09T12:12:02.901Z,24.25
2022-08-09T12:14:37.156Z,23.72
2022-08-09T12:17:27.584Z,23.15
2022-08-09T12:20:12.371Z,22.63
2022-08-09T12:22:43.836Z,22.77
2022-08-09T12:25:12.622Z,23.39
2022-08-09T12:29:12.577Z,23.18
2022-08-09T12:30:36.867Z,22.78
2022-08-09T12:33:05.737Z,22.59
2022-08-09T12:35:40.744Z,22.33
2022-08-09T12:38:29.967Z,22.97
2022-08-09T12:41:05.577Z,22.57
2022-08-09T12:44:04.936Z,22.60
2022-08-09T12:46:25.875Z,22.85
2022-08-09T12:48:55.388Z,22.35
2022-08-09T12:51:30.640Z,22.49
2022-08-09T12:54:10.150Z,22.18
2022-08-09T12:56:50.953Z,22.21
2022-08-09T12:59:20.536Z,23.05
2022-08-09T13:02:00.000Z,23.25
2022-08-09T13:04:37.124Z,22.59
2022-08-09T13:07:16.584Z,22.38
2022-08-09T13:09:53.010Z,22.43
2022-08-09T13:12:27.954Z,23.41
2022-08-09T13:15:07.151Z,21.88
2022-08-09T13:18:03.544Z,22.21
2022-08-09T13:21:20.480Z,22.48
2022-08-09T13:24:06.992Z,21.88
2022-08-09T13:26:41.797Z,22.31
2022-08-09T13:29:17.970Z,22.34
2022-08-09T13:32:20.010Z,23.03
2022-08-09T13:34:46.842Z,23.70
2022-08-09T13:37:24.480Z,24.79
2022-08-09T13:41:54.255Z,24.63
2022-08-09T13:42:49.919Z,24.42
2022-08-09T13:45:17.519Z,24.39
2022-08-09T13:47:51.886Z,24.55
2022-08-09T13:50:30.104Z,25.09
2022-08-09T13:52:58.174Z,25.54
2022-08-09T13:55:24.967Z,25.75
2022-08-09T13:57:58.150Z,26.24
2022-08-09T14:00:27.299Z,26.35
2022-08-09T14:03:02.990Z,26.39
2022-08-09T14:06:00.332Z,24.29
2022-08-09T14:08:30.193Z,24.65
2022-08-09T14:11:00.223Z,25.64
2022-08-09T14:14:15.663Z,25.59
2022-08-09T14:16:18.063Z,25.68
2022-08-09T14:18:49.485Z,26.08
2022-08-09T14:21:23.108Z,26.52
2022-08-09T14:23:55.248Z,26.30
2022-08-09T14:26:32.917Z,26.48
2022-08-09T14:30:18.339Z,25.85
2022-08-09T14:32:04.542Z,25.34
2022-08-09T14:34:40.873Z,25.74
2022-08-09T14:37:08.388Z,24.96
2022-08-09T14:39:47.022Z,25.08
2022-08-09T14:42:30.657Z,25.32
2022-08-09T14:45:00.851Z,25.50
2022-08-09T14:47:44.822Z,25.86
2022-08-09T14:50:16.293Z,26.38
2022-08-09T14:52:47.864Z,24.98
2022-08-09T14:55:20.210Z,26.25
2022-08-09T14:57:47.501Z,26.70
2022-08-09T15:00:15.618Z,27.22
2022-08-09T15:02:42.159Z,26.85
2022-08-09T15:05:10.492Z,25.86
2022-08-09T15:07:37.426Z,25.88
2022-08-09T15:10:11.173Z,27.32
2022-08-09T15:12:45.107Z,27.62
2022-08-09T15:15:13.084Z,28.03
2022-08-09T15:17:41.495Z,28.19
2022-08-09T15:20:15.153Z,28.25
2022-08-09T15:22:46.737Z,28.44
2022-08-09T15:25:14.731Z,28.03
2022-08-09T15:28:03.191Z,27.82
2022-08-09T15:31:00.928Z,28.24
2022-08-09T15:34:15.444Z,28.50
2022-08-09T15:36:21.951Z,28.86
2022-08-09T15:38:55.313Z,29.04
2022-08-09T15:41:23.286Z,29.37
2022-08-09T15:44:02.343Z,30.29
2022-08-09T15:46:33.418Z,30.99
2022-08-09T15:49:22.732Z,31.67
2022-08-09T15:52:03.264Z,31.95
2022-08-09T15:54:44.813Z,31.26
2022-08-09T15:57:34.234Z,31.51
2022-08-09T16:00:14.257Z,32.36
2022-08-09T16:02:53.544Z,33.20
2022-08-09T16:05:22.794Z,34.09
2022-08-09T16:07:50.602Z,34.62
2022-08-09T16:10:54.982Z,34.80
2022-08-09T16:13:05.203Z,34.76
2022-08-09T16:16:04.742Z,35.38
2022-08-09T16:18:32.388Z,36.11
2022-08-09T16:20:59.312Z,36.94
2022-08-09T16:23:26.970Z,37.87
2022-08-09T16:26:01.009Z,38.29
2022-08-09T16:28:29.530Z,38.88
2022-08-09T16:30:59.359Z,39.47
2022-08-09T16:33:26.980Z,39.98
2022-08-09T16:35:58.176Z,39.78
2022-08-09T16:38:26.737Z,40.44
2022-08-09T16:40:53.473Z,41.01
2022-08-09T16:43:22.123Z,41.60
2022-08-09T16:45:53.832Z,41.86
2022-08-09T16:48:41.087Z,42.88
2022-08-09T16:51:13.879Z,43.01
2022-08-09T16:54:09.140Z,43.41
2022-08-09T16:56:31.588Z,43.91
2022-08-09T16:58:59.233Z,44.27
2022-08-09T17:01:28.110Z,44.49
2022-08-09T17:04:01.082Z,44.68
2022-08-09T17:06:31.581Z,45.17
2022-08-09T17:09:17.867Z,45.27
2022-08-09T17:11:51.335Z,45.15
2022-08-09T17:14:27.611Z,45.19
2022-08-09T17:17:01.366Z,45.50
2022-08-09T17:19:47.628Z,45.76
2022-08-09T17:22:23.956Z,45.92
2022-08-09T17:24:55.857Z,46.15
2022-08-09T17:27:31.172Z,46.24
2022-08-09T17:29:57.777Z,46.80
2022-08-09T17:32:34.649Z,47.00
2022-08-09T17:35:12.102Z,47.18
2022-08-09T17:38:02.675Z,47.23
2022-08-09T17:40:29.498Z,47.48
2022-08-09T17:43:03.254Z,47.69
2022-08-09T17:46:04.213Z,47.53
2022-08-09T17:48:30.723Z,47.63
2022-08-09T17:50:59.415Z,48.00
2022-08-09T17:53:43.376Z,48.39
2022-08-09T17:56:18.557Z,48.44
2022-08-09T17:58:45.214Z,48.48
2022-08-09T18:01:22.117Z,48.83
2022-08-09T18:03:50.055Z,49.10
2022-08-09T18:06:31.256Z,49.39
2022-08-09T18:09:03.175Z,49.45
2022-08-09T18:11:47.139Z,49.49
2022-08-09T18:14:20.250Z,49.75
2022-08-09T18:16:48.747Z,50.27
2022-08-09T18:20:55.677Z,51.34
2022-08-09T18:22:03.635Z,52.13
2022-08-09T18:24:30.194Z,52.82
2022-08-09T18:26:57.921Z,53.25
2022-08-09T18:30:39.250Z,53.64
2022-08-09T18:32:14.552Z,54.06
2022-08-09T18:34:45.947Z,54.21
2022-08-09T18:37:48.173Z,54.66
2022-08-09T18:40:02.365Z,55.16
2022-08-09T18:42:29.724Z,55.24
2022-08-09T18:44:57.019Z,55.52
2022-08-09T18:47:27.770Z,55.84
2022-08-09T18:50:06.116Z,56.25
2022-08-09T18:52:36.491Z,56.59
2022-08-09T18:55:04.984Z,56.72
2022-08-09T18:57:38.393Z,56.96
2022-08-09T19:00:11.114Z,57.32
2022-08-09T19:02:38.281Z,57.43
2022-08-09T19:05:20.195Z,57.91
2022-08-09T19:08:04.854Z,58.10
2022-08-09T19:10:39.441Z,58.39
2022-08-09T19:13:18.633Z,59.18
2022-08-09T19:15:51.488Z,59.30
2022-08-09T19:18:33.975Z,59.62
2022-08-09T19:21:09.127Z,60.01
2022-08-09T19:24:31.821Z,60.56
2022-08-09T19:26:31.957Z,60.58
2022-08-09T19:29:15.161Z,60.92
2022-08-09T19:31:46.250Z,61.27
2022-08-09T19:34:21.766Z,61.68
2022-08-09T19:36:51.077Z,61.94
2022-08-09T19:39:17.937Z,62.30
2022-08-09T19:41:48.642Z,62.57
2022-08-09T19:44:20.523Z,63.01
2022-08-09T19:46:50.573Z,62.93
2022-08-09T19:50:08.795Z,62.91
2022-08-09T19:52:08.323Z,63.09
2022-08-09T19:54:34.988Z,63.75
2022-08-09T19:57:02.372Z,63.89
2022-08-09T19:59:30.163Z,64.19
2022-08-09T20:04:07.014Z,64.41
2022-08-09T20:05:09.816Z,64.69
2022-08-09T20:07:57.174Z,65.06
2022-08-09T20:10:33.995Z,65.30
2022-08-09T20:13:02.419Z,65.42
2022-08-09T20:16:35.316Z,65.39
2022-08-09T20:18:18.011Z,65.73
2022-08-09T20:20:46.711Z,65.87
2022-08-09T20:23:13.483Z,66.13
2022-08-09T20:25:52.606Z,66.10
2022-08-09T20:28:27.586Z,66.30
2022-08-09T20:31:01.008Z,66.63
2022-08-09T20:33:39.140Z,66.58
2022-08-09T20:36:08.767Z,66.85
2022-08-09T20:39:02.600Z,66.95
2022-08-09T20:41:35.133Z,67.04
2022-08-09T20:44:04.441Z,66.98
2022-08-09T20:46:43.113Z,66.75
2022-08-09T20:49:12.975Z,66.68
2022-08-09T20:51:41.032Z,66.83
2022-08-09T20:54:07.899Z,66.83
2022-08-09T20:56:39.545Z,67.02
2022-08-09T20:59:07.775Z,67.11
2022-08-09T21:01:51.307Z,67.24
2022-08-09T21:05:54.481Z,67.38
2022-08-09T21:07:11.677Z,67.30
2022-08-09T21:09:56.820Z,67.41
2022-08-09T21:12:56.367Z,67.51
2022-08-09T21:15:13.564Z,67.52
2022-08-09T21:18:11.465Z,67.55
2022-08-09T21:20:29.783Z,67.50
2022-08-09T21:22:58.282Z,67.60
2022-08-09T21:25:55.978Z,67.46
2022-08-09T21:28:34.470Z,67.50
2022-08-09T21:31:17.263Z,67.31
2022-08-09T21:33:50.692Z,67.11
2022-08-09T21:36:25.786Z,67.21
2022-08-09T21:38:58.031Z,67.31
2022-08-09T21:42:05.686Z,67.29
2022-08-09T21:44:33.100Z,67.18
2022-08-09T21:47:07.394Z,66.91
2022-08-09T21:49:40.197Z,67.03
2022-08-09T21:52:17.627Z,67.05
2022-08-09T21:54:50.834Z,67.00
2022-08-09T21:57:38.278Z,66.85
2022-08-09T22:00:25.269Z,66.79
2022-08-09T22:02:58.726Z,66.85
2022-08-09T22:08:19.534Z,66.84
2022-08-09T22:12:05.895Z,66.94
2022-08-09T22:13:48.177Z,67.08
2022-08-09T22:16:16.835Z,67.19
2022-08-09T22:18:53.919Z,67.25
2022-08-09T22:21:24.378Z,67.23
2022-08-09T22:24:01.992Z,67.28
2022-08-09T22:26:37.810Z,67.27
2022-08-09T22:29:09.088Z,67.21
2022-08-09T22:31:36.898Z,67.11
2022-08-09T22:34:09.699Z,67.09
2022-08-09T22:36:46.004Z,67.19
2022-08-09T22:39:47.082Z,67.61
2022-08-09T22:42:03.961Z,67.59
2022-08-09T22:44:33.234Z,67.51
2022-08-09T22:48:14.950Z,67.77
2022-08-09T22:49:52.157Z,67.64
2022-08-09T22:52:19.857Z,67.77
2022-08-09T22:54:47.943Z,67.52
2022-08-09T22:57:15.042Z,67.39
2022-08-09T22:59:58.104Z,67.27
2022-08-09T23:02:26.028Z,67.15
2022-08-09T23:04:54.664Z,66.97
2022-08-09T23:08:23.283Z,67.09
2022-08-09T23:10:30.138Z,67.17
2022-08-09T23:12:57.150Z,67.50
2022-08-09T23:15:23.713Z,67.91
2022-08-09T23:17:50.265Z,67.72
2022-08-09T23:20:16.852Z,67.47
2022-08-09T23:22:43.441Z,67.49
2022-08-09T23:25:11.001Z,67.36
2022-08-09T23:28:14.811Z,67.25
2022-08-09T23:30:24.358Z,67.40
2022-08-09T23:32:51.121Z,67.18
2022-08-09T23:35:17.976Z,67.11
2022-08-09T23:37:44.655Z,67.14
2022-08-09T23:40:12.079Z,67.31
2022-08-09T23:42:38.664Z,67.56
2022-08-09T23:45:08.858Z,67.69
2022-08-09T23:47:35.644Z,67.59
2022-08-09T23:50:02.202Z,67.58
2022-08-09T23:52:28.785Z,67.50
2022-08-09T23:54:57.570Z,67.75
2022-08-09T23:57:24.093Z,67.60
